Time;durP1;ratioP1;P1;durP2;ratioP2;P2;SDS_P1;SDS_P2;PMS_P1;PMS_P2;Temp;Humidity;BMP_temperature;BMP_pressure;BME280_temperature;BME280_humidity;BME280_pressure;Samples;Min_cycle;Max_cycle;Signal;HPM_P1;HPM_P2
2024/02/21 00:02:13;;;;;;;12.57;4.45;;;;;;;;;;4896358;29;20032;-81
2024/02/21 00:04:58;;;;;;;9.68;4.40;;;;;;;;;;4903413;29;20043;-81
2024/02/21 00:07:43;;;;;;;16.55;7.00;;;;;;;;;;4919237;29;20055;-80
2024/02/21 00:10:31;;;;;;;14.88;5.88;;;;;;;;;;4905644;29;20043;-80
2024/02/21 00:13:16;;;;;;;15.88;5.65;;;;;;;;;;4904189;29;20139;-78
2024/02/21 00:16:02;;;;;;;10.88;4.57;;;;;;;;;;4905237;29;20027;-80
2024/02/21 00:18:47;;;;;;;10.25;4.13;;;;;;;;;;4909463;29;20034;-78
2024/02/21 00:21:33;;;;;;;13.95;4.50;;;;;;;;;;4908582;29;20047;-78
2024/02/21 00:24:18;;;;;;;11.70;4.85;;;;;;;;;;4909897;29;20063;-81
2024/02/21 00:27:03;;;;;;;11.82;4.38;;;;;;;;;;4910575;29;20039;-79
2024/02/21 00:29:49;;;;;;;14.20;4.72;;;;;;;;;;4922455;29;20031;-80
2024/02/21 00:32:34;;;;;;;14.60;4.40;;;;;;;;;;4904635;29;20117;-79
2024/02/21 00:35:19;;;;;;;10.93;3.97;;;;;;;;;;4904284;29;20669;-80
2024/02/21 00:38:04;;;;;;;11.80;4.43;;;;;;;;;;4903159;29;20020;-80
2024/02/21 00:40:50;;;;;;;13.52;3.92;;;;;;;;;;4898076;29;20028;-80
2024/02/21 00:43:35;;;;;;;12.48;4.47;;;;;;;;;;4906011;29;20026;-80
2024/02/21 00:46:20;;;;;;;11.57;5.13;;;;;;;;;;4903815;29;20090;-80
2024/02/21 00:49:05;;;;;;;14.25;4.68;;;;;;;;;;4897828;29;20050;-79
2024/02/21 00:51:51;;;;;;;14.60;6.15;;;;;;;;;;4907494;29;20035;-78
2024/02/21 00:54:36;;;;;;;10.70;4.53;;;;;;;;;;4906614;29;20454;-79
2024/02/21 00:57:21;;;;;;;10.85;4.40;;;;;;;;;;4908098;29;20031;-79
2024/02/21 01:00:07;;;;;;;12.50;4.65;;;;;;;;;;4899146;29;20043;-79
2024/02/21 01:02:53;;;;;;;10.18;4.13;;;;;;;;;;4908035;29;20028;-79
2024/02/21 01:05:38;;;;;;;12.55;4.63;;;;;;;;;;4921145;29;20038;-80
2024/02/21 01:08:23;;;;;;;12.50;4.60;;;;;;;;;;4911964;29;20032;-80
2024/02/21 01:11:09;;;;;;;13.10;4.57;;;;;;;;;;4912590;29;20218;-79
2024/02/21 01:13:55;;;;;;;13.18;3.92;;;;;;;;;;4904722;29;20048;-80
2024/02/21 01:16:41;;;;;;;9.65;4.10;;;;;;;;;;4901783;29;20036;-79
2024/02/21 01:19:26;;;;;;;10.23;3.92;;;;;;;;;;4896933;29;20076;-80
2024/02/21 01:22:12;;;;;;;9.20;4.35;;;;;;;;;;4920391;29;20024;-80
2024/02/21 01:24:57;;;;;;;13.20;4.18;;;;;;;;;;4906474;29;20035;-80
2024/02/21 01:27:44;;;;;;;10.13;4.00;;;;;;;;;;4909662;29;20079;-81
2024/02/21 01:30:29;;;;;;;11.95;3.90;;;;;;;;;;4905400;29;20063;-79
2024/02/21 01:33:15;;;;;;;9.82;4.45;;;;;;;;;;4902443;29;20040;-80
2024/02/21 01:36:03;;;;;;;11.25;4.50;;;;;;;;;;4893657;29;20043;-78
2024/02/21 01:38:51;;;;;;;10.55;4.03;;;;;;;;;;4896418;29;20038;-80
2024/02/21 01:41:36;;;;;;;8.88;4.10;;;;;;;;;;4902203;29;20032;-78
2024/02/21 01:44:21;;;;;;;9.60;3.35;;;;;;;;;;4901408;29;20114;-80
2024/02/21 01:47:07;;;;;;;8.95;3.20;;;;;;;;;;4893036;29;20035;-79
2024/02/21 01:49:53;;;;;;;13.65;4.20;;;;;;;;;;4895369;29;20024;-79
2024/02/21 01:52:39;;;;;;;13.23;4.07;;;;;;;;;;4904886;29;20175;-79
2024/02/21 01:55:24;;;;;;;11.85;3.58;;;;;;;;;;4906725;29;20032;-79
2024/02/21 01:58:10;;;;;;;10.95;3.78;;;;;;;;;;4909134;29;20114;-79
2024/02/21 02:00:56;;;;;;;13.57;3.88;;;;;;;;;;4909248;29;20542;-79
2024/02/21 02:03:42;;;;;;;11.00;4.53;;;;;;;;;;4908211;29;20035;-79
2024/02/21 02:06:27;;;;;;;12.30;3.95;;;;;;;;;;4899369;29;20024;-79
2024/02/21 02:09:12;;;;;;;8.10;3.70;;;;;;;;;;4907900;29;20044;-78
2024/02/21 02:11:58;;;;;;;9.55;3.55;;;;;;;;;;4906068;29;20050;-79
2024/02/21 02:14:44;;;;;;;16.00;3.47;;;;;;;;;;4906872;29;20056;-78
2024/02/21 02:17:29;;;;;;;7.32;3.35;;;;;;;;;;4904928;29;20031;-78
2024/02/21 02:20:16;;;;;;;16.23;4.75;;;;;;;;;;4909690;29;20032;-78
2024/02/21 02:23:08;;;;;;;8.57;3.00;;;;;;;;;;4904012;29;20067;-80
2024/02/21 02:25:53;;;;;;;10.18;3.38;;;;;;;;;;4921859;29;20554;-81
2024/02/21 02:28:39;;;;;;;8.02;3.58;;;;;;;;;;4906902;29;20031;-80
2024/02/21 02:31:24;;;;;;;8.07;3.42;;;;;;;;;;4910732;29;20024;-79
2024/02/21 02:34:09;;;;;;;11.15;3.33;;;;;;;;;;4905834;29;20063;-79
2024/02/21 02:36:54;;;;;;;8.88;3.65;;;;;;;;;;4906154;29;20036;-80
2024/02/21 02:39:40;;;;;;;8.45;3.58;;;;;;;;;;4903788;29;20024;-79
2024/02/21 02:42:25;;;;;;;11.88;3.22;;;;;;;;;;4899354;29;20028;-80
2024/02/21 02:45:10;;;;;;;7.70;3.03;;;;;;;;;;4914727;29;20039;-79
2024/02/21 02:47:56;;;;;;;11.55;3.20;;;;;;;;;;4907632;29;20039;-80
2024/02/21 02:50:42;;;;;;;11.43;4.18;;;;;;;;;;4907828;29;20032;-80
2024/02/21 02:53:27;;;;;;;11.65;4.10;;;;;;;;;;4909362;29;20031;-80
2024/02/21 02:56:15;;;;;;;11.15;3.33;;;;;;;;;;4919655;29;20031;-80
2024/02/21 02:59:01;;;;;;;8.90;2.92;;;;;;;;;;4911665;29;20039;-79
2024/02/21 03:01:46;;;;;;;10.95;2.90;;;;;;;;;;4915349;29;20040;-80
2024/02/21 03:04:32;;;;;;;9.95;3.47;;;;;;;;;;4910728;29;20036;-79
2024/02/21 03:07:17;;;;;;;10.05;3.17;;;;;;;;;;4895518;29;20119;-80
2024/02/21 03:10:02;;;;;;;13.05;3.45;;;;;;;;;;4916076;29;20020;-79
2024/02/21 03:12:48;;;;;;;12.70;3.85;;;;;;;;;;4912335;29;20060;-80
2024/02/21 03:15:33;;;;;;;10.35;3.05;;;;;;;;;;4905439;29;20036;-79
2024/02/21 03:18:18;;;;;;;8.35;2.92;;;;;;;;;;4910976;29;20148;-79
2024/02/21 03:21:04;;;;;;;9.70;3.55;;;;;;;;;;4912952;29;20032;-80
2024/02/21 03:23:49;;;;;;;7.80;3.15;;;;;;;;;;4897347;29;20032;-80
2024/02/21 03:26:35;;;;;;;10.43;3.85;;;;;;;;;;4906591;29;20040;-79
2024/02/21 03:29:20;;;;;;;12.48;3.80;;;;;;;;;;4912689;29;20036;-79
2024/02/21 03:32:05;;;;;;;13.57;3.53;;;;;;;;;;4908176;29;20515;-79
2024/02/21 03:34:51;;;;;;;12.13;4.15;;;;;;;;;;4900396;29;20082;-79
2024/02/21 03:37:36;;;;;;;11.23;3.40;;;;;;;;;;4900410;29;20047;-78
2024/02/21 03:40:21;;;;;;;10.93;3.40;;;;;;;;;;4904850;29;20430;-78
2024/02/21 03:43:06;;;;;;;9.85;3.72;;;;;;;;;;4906859;29;20037;-78
2024/02/21 03:45:51;;;;;;;11.57;4.43;;;;;;;;;;4906102;29;20669;-79
2024/02/21 03:48:36;;;;;;;7.15;3.60;;;;;;;;;;4902504;29;20050;-79
2024/02/21 03:51:20;;;;;;;7.32;3.65;;;;;;;;;;4908232;29;20064;-79
2024/02/21 03:54:04;;;;;;;8.25;3.10;;;;;;;;;;4915589;29;20089;-80
2024/02/21 03:56:48;;;;;;;12.25;4.00;;;;;;;;;;4914028;29;20087;-79
2024/02/21 03:59:34;;;;;;;10.93;3.53;;;;;;;;;;4901898;29;20028;-79
2024/02/21 04:02:19;;;;;;;10.70;3.35;;;;;;;;;;4899880;29;20502;-78
2024/02/21 04:05:05;;;;;;;16.60;3.50;;;;;;;;;;4891758;29;20460;-78
2024/02/21 04:07:53;;;;;;;12.48;3.85;;;;;;;;;;4895964;29;20052;-78
2024/02/21 04:10:39;;;;;;;11.75;3.33;;;;;;;;;;4896907;29;20096;-78
2024/02/21 04:13:25;;;;;;;11.93;3.38;;;;;;;;;;4896816;29;20500;-78
2024/02/21 04:16:10;;;;;;;9.90;3.55;;;;;;;;;;4891032;29;20052;-80
2024/02/21 04:18:56;;;;;;;11.65;3.53;;;;;;;;;;4898639;29;20039;-79
2024/02/21 04:21:41;;;;;;;9.43;3.40;;;;;;;;;;4888418;29;20047;-78
2024/02/21 04:24:26;;;;;;;6.82;2.88;;;;;;;;;;4905355;29;20102;-79
2024/02/21 04:27:12;;;;;;;12.77;4.40;;;;;;;;;;4907157;29;20324;-79
2024/02/21 04:29:58;;;;;;;10.95;4.50;;;;;;;;;;4899447;29;20035;-78
2024/02/21 04:32:43;;;;;;;8.43;3.90;;;;;;;;;;4897718;29;20040;-78
2024/02/21 04:35:29;;;;;;;8.45;3.17;;;;;;;;;;4898986;29;20123;-78
2024/02/21 04:38:15;;;;;;;14.45;5.00;;;;;;;;;;4902825;29;20566;-78
2024/02/21 04:41:00;;;;;;;11.60;4.18;;;;;;;;;;4886634;29;20515;-78
2024/02/21 04:43:46;;;;;;;10.32;3.17;;;;;;;;;;4908014;29;20522;-78
2024/02/21 04:46:31;;;;;;;11.13;3.67;;;;;;;;;;4903734;29;20521;-77
2024/02/21 04:49:16;;;;;;;6.45;2.78;;;;;;;;;;4906830;29;20110;-79
2024/02/21 04:52:02;;;;;;;10.85;3.22;;;;;;;;;;4903048;29;20020;-79
2024/02/21 04:54:47;;;;;;;8.38;2.78;;;;;;;;;;4905119;29;20103;-78
2024/02/21 04:57:32;;;;;;;8.27;3.25;;;;;;;;;;4895592;29;20090;-79
2024/02/21 05:00:18;;;;;;;8.15;3.03;;;;;;;;;;4900535;29;20111;-77
2024/02/21 05:03:03;;;;;;;6.88;3.20;;;;;;;;;;4890965;29;20044;-78
2024/02/21 05:05:49;;;;;;;7.72;2.90;;;;;;;;;;4892920;29;20533;-79
2024/02/21 05:08:34;;;;;;;13.57;3.88;;;;;;;;;;4892369;29;20032;-79
2024/02/21 05:11:19;;;;;;;9.85;3.63;;;;;;;;;;4892587;29;20175;-79
2024/02/21 05:14:05;;;;;;;9.23;3.55;;;;;;;;;;4895625;29;20048;-79
2024/02/21 05:16:50;;;;;;;9.35;3.05;;;;;;;;;;4897770;29;20031;-80
2024/02/21 05:19:35;;;;;;;8.90;2.80;;;;;;;;;;4894399;29;20028;-79
2024/02/21 05:22:20;;;;;;;10.10;2.78;;;;;;;;;;4895908;29;20043;-79
2024/02/21 05:25:06;;;;;;;8.45;3.85;;;;;;;;;;4893894;29;20032;-80
2024/02/21 05:27:53;;;;;;;6.97;3.17;;;;;;;;;;4895827;29;20495;-78
2024/02/21 05:30:40;;;;;;;11.25;3.45;;;;;;;;;;4899151;29;20031;-78
2024/02/21 05:33:26;;;;;;;5.25;2.80;;;;;;;;;;4899182;29;20032;-78
2024/02/21 05:36:11;;;;;;;11.02;3.17;;;;;;;;;;4899678;29;20032;-78
2024/02/21 05:38:57;;;;;;;12.98;3.42;;;;;;;;;;4899185;29;20035;-78
2024/02/21 05:41:42;;;;;;;12.63;3.17;;;;;;;;;;4897173;29;20070;-77
2024/02/21 05:44:28;;;;;;;14.23;3.75;;;;;;;;;;4914492;29;20170;-77
2024/02/21 05:47:15;;;;;;;10.20;3.78;;;;;;;;;;4894650;29;20039;-77
2024/02/21 05:50:00;;;;;;;9.20;3.40;;;;;;;;;;4898770;29;20463;-77
2024/02/21 05:52:45;;;;;;;13.05;3.97;;;;;;;;;;4899304;29;20120;-78
2024/02/21 05:55:30;;;;;;;11.13;3.88;;;;;;;;;;4900667;29;20040;-78
2024/02/21 05:58:16;;;;;;;9.20;3.13;;;;;;;;;;4895664;29;20078;-77
2024/02/21 06:01:03;;;;;;;10.05;3.30;;;;;;;;;;4898840;29;20028;-78
2024/02/21 06:03:48;;;;;;;7.63;3.22;;;;;;;;;;4899292;29;20111;-78
2024/02/21 06:06:34;;;;;;;7.38;2.70;;;;;;;;;;4898394;29;20435;-78
2024/02/21 06:09:19;;;;;;;12.68;3.53;;;;;;;;;;4908817;29;20412;-78
2024/02/21 06:12:04;;;;;;;11.00;3.42;;;;;;;;;;4898835;29;20036;-78
2024/02/21 06:14:49;;;;;;;10.98;3.85;;;;;;;;;;4891465;29;20045;-76
2024/02/21 06:17:35;;;;;;;7.07;2.80;;;;;;;;;;4900285;29;20618;-81
2024/02/21 06:20:20;;;;;;;11.20;3.45;;;;;;;;;;4902398;29;20024;-80
2024/02/21 06:23:06;;;;;;;9.73;3.08;;;;;;;;;;4889747;29;20032;-80
2024/02/21 06:25:51;;;;;;;13.02;4.55;;;;;;;;;;4901878;29;20071;-79
2024/02/21 06:28:37;;;;;;;7.57;2.58;;;;;;;;;;4884022;29;20028;-81
2024/02/21 06:31:22;;;;;;;6.75;2.78;;;;;;;;;;4896947;29;20023;-80
2024/02/21 06:34:07;;;;;;;14.82;4.68;;;;;;;;;;4902793;29;20028;-80
2024/02/21 06:36:53;;;;;;;10.60;4.22;;;;;;;;;;4898810;29;20103;-80
2024/02/21 06:39:40;;;;;;;6.65;2.72;;;;;;;;;;4905331;29;20036;-81
2024/02/21 06:42:25;;;;;;;13.00;3.78;;;;;;;;;;4890408;29;20028;-81
2024/02/21 06:45:11;;;;;;;11.52;3.22;;;;;;;;;;4898094;29;20055;-79
2024/02/21 06:47:56;;;;;;;8.88;3.80;;;;;;;;;;4905285;29;20043;-80
2024/02/21 06:50:41;;;;;;;9.05;3.25;;;;;;;;;;4898509;29;20058;-80
2024/02/21 06:53:26;;;;;;;10.57;3.28;;;;;;;;;;4896752;29;20035;-84
2024/02/21 06:56:11;;;;;;;10.68;3.33;;;;;;;;;;4895410;29;20083;-83
2024/02/21 06:58:57;;;;;;;9.15;2.90;;;;;;;;;;4897372;29;20103;-83
2024/02/21 07:01:49;;;;;;;9.05;3.17;;;;;;;;;;4896340;29;20032;-84
2024/02/21 07:04:34;;;;;;;11.93;3.55;;;;;;;;;;4895658;29;20024;-86
2024/02/21 07:07:20;;;;;;;10.95;3.10;;;;;;;;;;4897970;29;20025;-85
2024/02/21 07:10:06;;;;;;;9.02;2.60;;;;;;;;;;4895545;29;20060;-85
2024/02/21 07:12:52;;;;;;;11.77;2.92;;;;;;;;;;4887239;29;20135;-83
2024/02/21 07:15:38;;;;;;;14.80;3.78;;;;;;;;;;4896875;29;20032;-81
2024/02/21 07:18:25;;;;;;;10.57;3.55;;;;;;;;;;4896883;29;20024;-82
2024/02/21 07:21:10;;;;;;;6.90;3.03;;;;;;;;;;4896700;29;20020;-83
2024/02/21 07:23:55;;;;;;;10.00;3.20;;;;;;;;;;4897554;29;20080;-83
2024/02/21 07:26:41;;;;;;;7.85;2.88;;;;;;;;;;4902476;29;20373;-85
2024/02/21 07:29:26;;;;;;;10.32;3.35;;;;;;;;;;4900169;29;20126;-85
2024/02/21 07:32:12;;;;;;;9.50;3.47;;;;;;;;;;4906602;29;20039;-84
2024/02/21 07:34:57;;;;;;;7.85;3.25;;;;;;;;;;4896780;29;20039;-85
2024/02/21 07:37:42;;;;;;;7.85;3.38;;;;;;;;;;4910800;29;20034;-83
2024/02/21 07:40:28;;;;;;;8.02;2.75;;;;;;;;;;4906921;29;20151;-84
2024/02/21 07:43:13;;;;;;;10.45;4.20;;;;;;;;;;4908146;29;20083;-84
2024/02/21 07:46:01;;;;;;;9.57;4.13;;;;;;;;;;4896330;29;20091;-84
2024/02/21 07:48:47;;;;;;;7.78;2.72;;;;;;;;;;4894519;29;20024;-85
2024/02/21 07:51:32;;;;;;;6.45;3.33;;;;;;;;;;4891866;29;20403;-85
2024/02/21 07:54:17;;;;;;;7.25;2.70;;;;;;;;;;4894093;29;20071;-84
2024/02/21 07:57:03;;;;;;;9.93;3.25;;;;;;;;;;4895207;29;20047;-84
2024/02/21 07:59:48;;;;;;;7.63;3.25;;;;;;;;;;4895042;29;20040;-83
2024/02/21 08:02:33;;;;;;;10.63;3.38;;;;;;;;;;4895981;29;20487;-84
2024/02/21 08:05:18;;;;;;;10.13;3.55;;;;;;;;;;4901118;29;20039;-84
2024/02/21 08:08:04;;;;;;;15.00;4.43;;;;;;;;;;4897108;29;20056;-84
2024/02/21 08:10:49;;;;;;;8.55;3.35;;;;;;;;;;4908820;29;20483;-84
2024/02/21 08:13:35;;;;;;;7.95;2.97;;;;;;;;;;4889319;29;20059;-85
2024/02/21 08:16:20;;;;;;;8.80;2.80;;;;;;;;;;4883185;29;20032;-84
2024/02/21 08:19:05;;;;;;;6.55;2.72;;;;;;;;;;4881050;29;20220;-82
2024/02/21 08:21:50;;;;;;;8.98;3.50;;;;;;;;;;4872334;29;20247;-83
2024/02/21 08:24:36;;;;;;;11.88;3.05;;;;;;;;;;4880681;29;20033;-85
2024/02/21 08:27:21;;;;;;;7.10;2.92;;;;;;;;;;4868464;29;20028;-84
2024/02/21 08:30:07;;;;;;;13.07;4.03;;;;;;;;;;4880538;29;20119;-83
2024/02/21 08:32:58;;;;;;;9.75;2.80;;;;;;;;;;4882321;29;20040;-83
2024/02/21 08:35:44;;;;;;;10.15;2.58;;;;;;;;;;4874180;29;20124;-84
2024/02/21 08:38:33;;;;;;;9.02;2.78;;;;;;;;;;4876992;29;20476;-84
2024/02/21 08:41:18;;;;;;;8.82;3.30;;;;;;;;;;4899417;29;20036;-84
2024/02/21 08:44:04;;;;;;;9.55;3.08;;;;;;;;;;4890121;29;20036;-83
2024/02/21 08:46:49;;;;;;;10.93;3.70;;;;;;;;;;4876630;29;20032;-83
2024/02/21 08:49:34;;;;;;;13.65;3.45;;;;;;;;;;4880163;29;20092;-83
2024/02/21 08:52:19;;;;;;;9.20;2.55;;;;;;;;;;4884935;29;20028;-83
2024/02/21 08:55:05;;;;;;;10.63;2.97;;;;;;;;;;4876897;29;20064;-84
2024/02/21 08:57:51;;;;;;;6.90;2.65;;;;;;;;;;4871966;29;20038;-83
2024/02/21 09:00:36;;;;;;;13.15;3.20;;;;;;;;;;4878287;29;20047;-81
2024/02/21 09:03:21;;;;;;;7.10;3.20;;;;;;;;;;4884210;29;20057;-83
2024/02/21 09:06:07;;;;;;;8.32;2.78;;;;;;;;;;4900052;29;20032;-84
2024/02/21 09:08:52;;;;;;;7.22;2.30;;;;;;;;;;4882056;29;20056;-85
2024/02/21 09:11:38;;;;;;;10.13;2.63;;;;;;;;;;4879972;29;20059;-86
2024/02/21 09:14:24;;;;;;;7.47;2.33;;;;;;;;;;4899138;29;20048;-87
2024/02/21 09:17:09;;;;;;;5.38;2.30;;;;;;;;;;4902204;29;20079;-88
2024/02/21 09:19:55;;;;;;;7.32;2.75;;;;;;;;;;4903759;29;20036;-88
2024/02/21 09:22:41;;;;;;;10.35;3.00;;;;;;;;;;4897226;29;20025;-88
2024/02/21 09:25:26;;;;;;;8.25;2.35;;;;;;;;;;4902258;29;20111;-87
2024/02/21 09:28:13;;;;;;;9.85;3.65;;;;;;;;;;4902179;29;20039;-88
2024/02/21 09:30:58;;;;;;;10.23;2.97;;;;;;;;;;4898518;29;20108;-87
2024/02/21 09:33:43;;;;;;;11.45;2.55;;;;;;;;;;4900220;29;20028;-87
2024/02/21 09:36:29;;;;;;;7.18;2.85;;;;;;;;;;4902578;29;20040;-87
2024/02/21 09:39:17;;;;;;;7.63;2.65;;;;;;;;;;4902047;29;20032;-86
2024/02/21 09:42:05;;;;;;;11.70;2.40;;;;;;;;;;4904783;29;20024;-86
2024/02/21 09:44:51;;;;;;;8.75;2.47;;;;;;;;;;4901778;29;20119;-86
2024/02/21 09:47:55;;;;;;;10.00;2.78;;;;;;;;;;4902598;29;20114;-88
2024/02/21 09:50:43;;;;;;;8.63;2.70;;;;;;;;;;4903033;29;20024;-91
2024/02/21 09:53:29;;;;;;;10.60;3.50;;;;;;;;;;4900047;29;20072;-85
2024/02/21 09:56:14;;;;;;;9.35;2.60;;;;;;;;;;4903024;29;20040;-85
2024/02/21 09:59:03;;;;;;;8.10;2.42;;;;;;;;;;4892014;29;20107;-84
2024/02/21 10:01:48;;;;;;;9.35;2.97;;;;;;;;;;4899244;29;20044;-88
2024/02/21 10:04:33;;;;;;;9.73;2.70;;;;;;;;;;4897975;29;20123;-85
2024/02/21 10:07:22;;;;;;;7.53;2.65;;;;;;;;;;4899229;29;20027;-85
2024/02/21 10:10:08;;;;;;;8.10;2.95;;;;;;;;;;4899764;29;20031;-88
2024/02/21 10:12:57;;;;;;;6.65;2.30;;;;;;;;;;4901653;29;20293;-88
2024/02/21 10:15:43;;;;;;;8.60;2.60;;;;;;;;;;4900217;29;20074;-87
2024/02/21 10:18:28;;;;;;;6.40;2.10;;;;;;;;;;4898562;29;20048;-85
2024/02/21 10:21:14;;;;;;;5.60;2.00;;;;;;;;;;4907029;29;20028;-84
2024/02/21 10:23:59;;;;;;;7.43;2.30;;;;;;;;;;4899953;29;20028;-90
2024/02/21 10:26:44;;;;;;;6.72;2.35;;;;;;;;;;4900798;29;20111;-86
2024/02/21 10:29:30;;;;;;;7.13;2.35;;;;;;;;;;4895706;29;20113;-87
2024/02/21 10:32:15;;;;;;;9.57;2.55;;;;;;;;;;4910766;29;20337;-87
2024/02/21 10:35:04;;;;;;;5.40;2.13;;;;;;;;;;4897617;29;20036;-86
2024/02/21 10:37:50;;;;;;;8.27;2.50;;;;;;;;;;4898212;29;20121;-86
2024/02/21 10:40:35;;;;;;;7.28;2.53;;;;;;;;;;4910518;29;20032;-84
2024/02/21 10:43:21;;;;;;;6.80;2.25;;;;;;;;;;4900648;29;20030;-86
2024/02/21 10:46:08;;;;;;;10.98;2.25;;;;;;;;;;4898425;29;20040;-87
2024/02/21 10:49:01;;;;;;;7.20;2.13;;;;;;;;;;4908265;29;20035;-84
2024/02/21 10:51:48;;;;;;;4.18;1.83;;;;;;;;;;4897852;29;20028;-86
2024/02/21 10:54:36;;;;;;;9.63;2.30;;;;;;;;;;4895489;29;20238;-87
2024/02/21 10:57:22;;;;;;;4.70;2.33;;;;;;;;;;4896952;29;20420;-90
2024/02/21 11:00:10;;;;;;;7.13;2.15;;;;;;;;;;4907465;29;20020;-89
2024/02/21 11:02:56;;;;;;;7.15;2.63;;;;;;;;;;4909420;29;20060;-89
2024/02/21 11:05:45;;;;;;;5.90;2.47;;;;;;;;;;4900319;29;20083;-90
2024/02/21 11:08:30;;;;;;;8.15;2.45;;;;;;;;;;4897869;29;20036;-89
2024/02/21 11:11:18;;;;;;;6.55;2.38;;;;;;;;;;4899103;29;20036;-86
2024/02/21 11:14:18;;;;;;;6.68;2.28;;;;;;;;;;4905352;29;20055;-86
2024/02/21 11:17:04;;;;;;;;;;;;;;;;;;4877648;29;20396;-87
2024/02/21 11:19:49;;;;;;;8.63;2.33;;;;;;;;;;4885639;29;20389;-87
2024/02/21 11:22:40;;;;;;;6.57;2.00;;;;;;;;;;4876417;29;20024;-88
2024/02/21 11:25:26;;;;;;;7.35;2.22;;;;;;;;;;4876708;29;20035;-87
2024/02/21 11:28:11;;;;;;;5.43;1.83;;;;;;;;;;4883023;29;20028;-87
2024/02/21 11:31:11;;;;;;;5.10;2.08;;;;;;;;;;4878725;29;20087;-87
2024/02/21 11:33:57;;;;;;;7.75;2.30;;;;;;;;;;4880667;29;20440;-88
2024/02/21 11:36:52;;;;;;;8.98;2.30;;;;;;;;;;4879585;29;20115;-88
2024/02/21 11:39:38;;;;;;;7.35;2.15;;;;;;;;;;4885583;29;20072;-87
2024/02/21 11:42:28;;;;;;;6.07;1.75;;;;;;;;;;4880314;29;20105;-87
2024/02/21 11:45:14;;;;;;;4.28;1.67;;;;;;;;;;4880046;29;20028;-87
2024/02/21 11:48:03;;;;;;;2.65;1.50;;;;;;;;;;4880173;29;20388;-87
2024/02/21 11:50:55;;;;;;;4.50;1.70;;;;;;;;;;4875956;29;20106;-88
2024/02/21 11:53:40;;;;;;;5.05;1.67;;;;;;;;;;4870948;29;20100;-87
2024/02/21 11:56:26;;;;;;;6.18;2.67;;;;;;;;;;4883997;29;20416;-85
2024/02/21 11:59:11;;;;;;;8.18;2.13;;;;;;;;;;4882555;29;20068;-88
2024/02/21 12:01:58;;;;;;;8.52;2.30;;;;;;;;;;4881544;29;20036;-86
2024/02/21 12:04:43;;;;;;;4.43;1.70;;;;;;;;;;4903590;29;20088;-88
2024/02/21 12:07:29;;;;;;;3.97;1.48;;;;;;;;;;4897126;28;20044;-88
2024/02/21 12:10:13;;;;;;;2.65;1.52;;;;;;;;;;4911772;29;20024;-87
2024/02/21 12:13:09;;;;;;;3.42;1.70;;;;;;;;;;4916811;28;20047;-86
2024/02/21 12:15:55;;;;;;;4.22;1.60;;;;;;;;;;4905022;29;20202;-86
2024/02/21 12:18:43;;;;;;;4.63;1.60;;;;;;;;;;4911872;29;20087;-87
2024/02/21 12:21:37;;;;;;;4.35;1.90;;;;;;;;;;4894639;29;20575;-87
2024/02/21 12:24:24;;;;;;;3.38;1.45;;;;;;;;;;4897902;29;20039;-85
2024/02/21 12:27:09;;;;;;;4.68;1.65;;;;;;;;;;4904560;29;20507;-86
2024/02/21 12:29:54;;;;;;;4.32;1.50;;;;;;;;;;4896164;29;20031;-90
2024/02/21 12:32:41;;;;;;;4.50;2.05;;;;;;;;;;4885856;29;20032;-88
2024/02/21 12:35:26;;;;;;;5.53;1.40;;;;;;;;;;4913964;29;20171;-88
2024/02/21 12:38:13;;;;;;;5.93;1.95;;;;;;;;;;4897356;29;20032;-88
2024/02/21 12:41:00;;;;;;;4.28;1.50;;;;;;;;;;4895396;29;20031;-87
2024/02/21 12:43:45;;;;;;;4.25;1.90;;;;;;;;;;4896205;29;20095;-86
2024/02/21 12:46:32;;;;;;;3.60;1.50;;;;;;;;;;4897990;29;20033;-86
2024/02/21 12:49:17;;;;;;;5.85;1.60;;;;;;;;;;4890112;29;20071;-86
2024/02/21 12:52:03;;;;;;;4.60;2.08;;;;;;;;;;4898171;29;20028;-83
2024/02/21 12:54:50;;;;;;;3.75;1.60;;;;;;;;;;4900309;29;20020;-87
2024/02/21 12:57:35;;;;;;;4.93;1.45;;;;;;;;;;4891587;29;20028;-88
2024/02/21 13:00:22;;;;;;;4.50;1.95;;;;;;;;;;4908094;29;20459;-91
2024/02/21 13:03:09;;;;;;;3.28;1.60;;;;;;;;;;4890751;29;20110;-84
2024/02/21 13:05:54;;;;;;;3.10;1.38;;;;;;;;;;4896763;29;20115;-85
2024/02/21 13:08:41;;;;;;;3.95;1.75;;;;;;;;;;4895261;29;20027;-84
2024/02/21 13:11:30;;;;;;;5.07;1.52;;;;;;;;;;4895287;29;20031;-83
2024/02/21 13:14:15;;;;;;;5.85;1.50;;;;;;;;;;4891970;29;20068;-83
2024/02/21 13:17:01;;;;;;;3.33;1.38;;;;;;;;;;4883172;29;20026;-85
2024/02/21 13:19:46;;;;;;;4.22;1.75;;;;;;;;;;4894353;29;20032;-84
2024/02/21 13:22:31;;;;;;;10.50;3.15;;;;;;;;;;4893724;29;20024;-86
2024/02/21 13:25:20;;;;;;;3.95;1.60;;;;;;;;;;4896210;29;20038;-83
2024/02/21 13:28:06;;;;;;;2.45;1.40;;;;;;;;;;4899391;29;20063;-84
2024/02/21 13:30:52;;;;;;;2.25;1.15;;;;;;;;;;4894217;29;20160;-83
2024/02/21 13:33:38;;;;;;;5.13;1.92;;;;;;;;;;4891483;29;20036;-83
2024/02/21 13:36:23;;;;;;;4.63;1.63;;;;;;;;;;4909227;29;20087;-82
2024/02/21 13:39:12;;;;;;;4.82;1.85;;;;;;;;;;4888559;29;20028;-82
2024/02/21 13:41:58;;;;;;;8.43;2.00;;;;;;;;;;4895885;29;20190;-82
2024/02/21 13:44:44;;;;;;;8.45;1.60;;;;;;;;;;4896425;29;20020;-82
2024/02/21 13:47:29;;;;;;;4.70;1.77;;;;;;;;;;4895693;29;20048;-82
2024/02/21 13:50:15;;;;;;;3.80;1.30;;;;;;;;;;4896828;29;20032;-83
2024/02/21 13:53:01;;;;;;;5.90;2.47;;;;;;;;;;4898629;29;20063;-83
2024/02/21 13:55:46;;;;;;;3.45;1.30;;;;;;;;;;4897461;29;20035;-83
2024/02/21 13:58:32;;;;;;;2.45;1.58;;;;;;;;;;4896964;29;20036;-81
2024/02/21 14:01:18;;;;;;;4.03;1.42;;;;;;;;;;4897736;29;20028;-82
2024/02/21 14:04:04;;;;;;;3.25;1.50;;;;;;;;;;4908293;29;20032;-81
2024/02/21 14:06:49;;;;;;;2.38;1.50;;;;;;;;;;4901502;29;20452;-81
2024/02/21 14:09:34;;;;;;;3.63;1.25;;;;;;;;;;4899003;29;20032;-81
2024/02/21 14:12:21;;;;;;;2.20;1.10;;;;;;;;;;4900516;29;20047;-82
2024/02/21 14:15:06;;;;;;;4.82;1.88;;;;;;;;;;4882175;29;20624;-82
2024/02/21 14:17:52;;;;;;;4.72;1.27;;;;;;;;;;4881214;29;20797;-83
2024/02/21 14:20:37;;;;;;;5.65;1.25;;;;;;;;;;4882337;29;20035;-82
2024/02/21 14:23:22;;;;;;;4.43;1.50;;;;;;;;;;4893057;29;20024;-83
2024/02/21 14:26:07;;;;;;;3.47;1.20;;;;;;;;;;4883962;29;20100;-82
2024/02/21 14:28:53;;;;;;;4.30;1.30;;;;;;;;;;4883227;29;20036;-83
2024/02/21 14:31:38;;;;;;;3.08;1.15;;;;;;;;;;4878567;29;20142;-83
2024/02/21 14:34:23;;;;;;;2.97;1.33;;;;;;;;;;4878800;29;20028;-83
2024/02/21 14:37:09;;;;;;;3.67;1.10;;;;;;;;;;4880252;29;20088;-83
2024/02/21 14:39:54;;;;;;;3.88;1.70;;;;;;;;;;4878564;29;20068;-85
2024/02/21 14:42:39;;;;;;;2.53;1.30;;;;;;;;;;4878230;29;20023;-85
2024/02/21 14:45:24;;;;;;;2.55;1.10;;;;;;;;;;4882693;29;20119;-84
2024/02/21 14:48:10;;;;;;;2.38;1.35;;;;;;;;;;4881043;29;20056;-82
2024/02/21 14:50:55;;;;;;;4.93;1.40;;;;;;;;;;4876303;29;20111;-86
2024/02/21 14:53:40;;;;;;;4.97;1.45;;;;;;;;;;4890148;29;20038;-87
2024/02/21 14:56:25;;;;;;;3.17;1.38;;;;;;;;;;4879712;29;20048;-85
2024/02/21 14:59:11;;;;;;;4.72;1.67;;;;;;;;;;4885765;29;20041;-85
2024/02/21 15:01:56;;;;;;;3.78;1.30;;;;;;;;;;4876048;29;20182;-84
2024/02/21 15:04:41;;;;;;;5.13;1.40;;;;;;;;;;4894238;29;20064;-83
2024/02/21 15:07:27;;;;;;;3.05;1.52;;;;;;;;;;4878865;29;20025;-82
2024/02/21 15:10:12;;;;;;;3.47;2.10;;;;;;;;;;4881906;29;20025;-83
2024/02/21 15:12:57;;;;;;;3.10;1.38;;;;;;;;;;4880207;29;20491;-84
2024/02/21 15:15:44;;;;;;;3.80;1.58;;;;;;;;;;4879352;29;20084;-85
2024/02/21 15:18:31;;;;;;;2.90;1.30;;;;;;;;;;4878976;29;20029;-83
2024/02/21 15:21:16;;;;;;;4.88;1.42;;;;;;;;;;4890352;29;20083;-83
2024/02/21 15:24:03;;;;;;;1.88;1.10;;;;;;;;;;4879615;29;20031;-81
2024/02/21 15:26:48;;;;;;;2.35;1.20;;;;;;;;;;4894591;29;20079;-84
2024/02/21 15:29:34;;;;;;;2.80;1.15;;;;;;;;;;4886013;29;20040;-83
2024/02/21 15:32:19;;;;;;;6.57;1.48;;;;;;;;;;4878892;29;20024;-83
2024/02/21 15:35:11;;;;;;;3.40;1.63;;;;;;;;;;4878265;29;20036;-86
2024/02/21 15:37:57;;;;;;;3.33;1.50;;;;;;;;;;4880160;29;20048;-86
2024/02/21 15:40:42;;;;;;;4.65;1.90;;;;;;;;;;4883015;29;20047;-86
2024/02/21 15:43:28;;;;;;;5.55;1.70;;;;;;;;;;4880460;29;20123;-88
2024/02/21 15:46:13;;;;;;;3.75;1.83;;;;;;;;;;4881382;29;20021;-84
2024/02/21 15:48:58;;;;;;;4.95;1.90;;;;;;;;;;4876437;29;20028;-87
2024/02/21 15:51:44;;;;;;;4.70;2.10;;;;;;;;;;4880888;29;20040;-86
2024/02/21 15:54:29;;;;;;;3.40;1.63;;;;;;;;;;4884644;29;20067;-85
2024/02/21 15:57:15;;;;;;;7.03;1.90;;;;;;;;;;4886183;29;20026;-84
2024/02/21 16:00:00;;;;;;;4.43;1.95;;;;;;;;;;4892161;29;20020;-85
2024/02/21 16:02:46;;;;;;;4.95;1.90;;;;;;;;;;4894995;29;20067;-85
2024/02/21 16:05:31;;;;;;;7.65;2.38;;;;;;;;;;4881635;29;20100;-85
2024/02/21 16:08:20;;;;;;;8.75;2.63;;;;;;;;;;4879810;29;20060;-84
2024/02/21 16:11:05;;;;;;;5.72;1.77;;;;;;;;;;4877297;29;20039;-88
2024/02/21 16:13:51;;;;;;;5.68;2.67;;;;;;;;;;4884160;29;20080;-88
2024/02/21 16:16:40;;;;;;;4.93;2.13;;;;;;;;;;4899705;29;20123;-89
2024/02/21 16:19:25;;;;;;;6.60;1.95;;;;;;;;;;4894628;29;20024;-90
2024/02/21 16:22:10;;;;;;;6.50;2.38;;;;;;;;;;4896177;29;20027;-89
2024/02/21 16:24:55;;;;;;;5.55;2.20;;;;;;;;;;4897811;29;20088;-90
2024/02/21 16:27:41;;;;;;;3.58;1.67;;;;;;;;;;4896624;29;20032;-90
2024/02/21 16:30:26;;;;;;;5.57;1.48;;;;;;;;;;4899247;29;20034;-89